sensor_id;sensor_type;location;lat;lon;timestamp;P1;durP1;ratioP1;P2;durP2;ratioP2
42668;SDS011;29384;42.028;21.388;2022-08-21T00:01:02;14.02;;;5.57;;
42668;SDS011;29384;42.028;21.388;2022-08-21T00:03:31;8.68;;;4.43;;
42668;SDS011;29384;42.028;21.388;2022-08-21T00:05:57;7.75;;;4.35;;
42668;SDS011;29384;42.028;21.388;2022-08-21T00:11:45;12.80;;;4.50;;
42668;SDS011;29384;42.028;21.388;2022-08-21T00:14:12;12.30;;;4.88;;
42668;SDS011;29384;42.028;21.388;2022-08-21T00:16:39;4.45;;;3.90;;
42668;SDS011;29384;42.028;21.388;2022-08-21T00:19:05;6.72;;;4.68;;
42668;SDS011;29384;42.028;21.388;2022-08-21T00:21:31;4.60;;;3.58;;
42668;SDS011;29384;42.028;21.388;2022-08-21T00:23:57;4.80;;;4.43;;
42668;SDS011;29384;42.028;21.388;2022-08-21T00:26:23;13.95;;;4.75;;
42668;SDS011;29384;42.028;21.388;2022-08-21T00:28:48;7.63;;;4.32;;
42668;SDS011;29384;42.028;21.388;2022-08-21T00:31:14;10.45;;;4.15;;
42668;SDS011;29384;42.028;21.388;2022-08-21T00:33:40;4.53;;;3.83;;
42668;SDS011;29384;42.028;21.388;2022-08-21T00:36:06;7.15;;;4.25;;
42668;SDS011;29384;42.028;21.388;2022-08-21T00:41:54;4.00;;;3.30;;
42668;SDS011;29384;42.028;21.388;2022-08-21T00:44:20;6.05;;;3.05;;
42668;SDS011;29384;42.028;21.388;2022-08-21T00:46:45;6.28;;;3.85;;
42668;SDS011;29384;42.028;21.388;2022-08-21T00:49:11;6.25;;;3.30;;
42668;SDS011;29384;42.028;21.388;2022-08-21T00:51:49;11.38;;;3.90;;
42668;SDS011;29384;42.028;21.388;2022-08-21T00:54:17;25.10;;;4.00;;
42668;SDS011;29384;42.028;21.388;2022-08-21T00:56:50;7.50;;;4.13;;
42668;SDS011;29384;42.028;21.388;2022-08-21T00:59:21;10.60;;;4.55;;
42668;SDS011;29384;42.028;21.388;2022-08-21T01:01:47;4.28;;;3.33;;
42668;SDS011;29384;42.028;21.388;2022-08-21T01:04:14;3.17;;;2.80;;
42668;SDS011;29384;42.028;21.388;2022-08-21T01:06:41;5.50;;;2.97;;
42668;SDS011;29384;42.028;21.388;2022-08-21T01:09:07;3.15;;;2.95;;
42668;SDS011;29384;42.028;21.388;2022-08-21T01:11:33;3.78;;;3.47;;
42668;SDS011;29384;42.028;21.388;2022-08-21T01:13:59;11.45;;;2.88;;
42668;SDS011;29384;42.028;21.388;2022-08-21T01:16:25;4.20;;;2.95;;
42668;SDS011;29384;42.028;21.388;2022-08-21T01:18:51;3.67;;;3.35;;
42668;SDS011;29384;42.028;21.388;2022-08-21T01:21:24;7.97;;;2.92;;
42668;SDS011;29384;42.028;21.388;2022-08-21T01:27:13;11.07;;;3.85;;
42668;SDS011;29384;42.028;21.388;2022-08-21T01:32:11;5.35;;;3.58;;
42668;SDS011;29384;42.028;21.388;2022-08-21T01:34:40;11.32;;;3.90;;
42668;SDS011;29384;42.028;21.388;2022-08-21T01:37:08;3.72;;;3.42;;
42668;SDS011;29384;42.028;21.388;2022-08-21T01:39:35;7.85;;;3.42;;
42668;SDS011;29384;42.028;21.388;2022-08-21T01:42:01;6.47;;;3.20;;
42668;SDS011;29384;42.028;21.388;2022-08-21T01:44:27;7.82;;;3.30;;
42668;SDS011;29384;42.028;21.388;2022-08-21T01:46:53;4.65;;;3.75;;
42668;SDS011;29384;42.028;21.388;2022-08-21T01:49:20;5.82;;;3.20;;
42668;SDS011;29384;42.028;21.388;2022-08-21T01:51:46;4.18;;;2.92;;
42668;SDS011;29384;42.028;21.388;2022-08-21T01:57:33;4.03;;;3.78;;
42668;SDS011;29384;42.028;21.388;2022-08-21T01:59:59;3.67;;;3.38;;
42668;SDS011;29384;42.028;21.388;2022-08-21T02:02:24;4.32;;;3.45;;
42668;SDS011;29384;42.028;21.388;2022-08-21T02:04:50;8.43;;;4.03;;
42668;SDS011;29384;42.028;21.388;2022-08-21T02:07:15;5.50;;;4.25;;
42668;SDS011;29384;42.028;21.388;2022-08-21T02:09:41;3.22;;;2.63;;
42668;SDS011;29384;42.028;21.388;2022-08-21T02:12:08;3.45;;;3.25;;
42668;SDS011;29384;42.028;21.388;2022-08-21T02:14:34;6.55;;;3.92;;
42668;SDS011;29384;42.028;21.388;2022-08-21T02:17:00;4.57;;;3.72;;
42668;SDS011;29384;42.028;21.388;2022-08-21T02:19:26;23.23;;;3.30;;
42668;SDS011;29384;42.028;21.388;2022-08-21T02:21:51;5.32;;;3.38;;
42668;SDS011;29384;42.028;21.388;2022-08-21T02:27:39;6.18;;;3.38;;
42668;SDS011;29384;42.028;21.388;2022-08-21T02:30:07;5.30;;;3.58;;
42668;SDS011;29384;42.028;21.388;2022-08-21T02:32:36;4.60;;;4.20;;
42668;SDS011;29384;42.028;21.388;2022-08-21T02:35:02;5.40;;;4.43;;
42668;SDS011;29384;42.028;21.388;2022-08-21T02:37:28;4.80;;;4.28;;
42668;SDS011;29384;42.028;21.388;2022-08-21T02:39:53;4.68;;;3.05;;
42668;SDS011;29384;42.028;21.388;2022-08-21T02:42:19;7.72;;;4.47;;
42668;SDS011;29384;42.028;21.388;2022-08-21T02:44:44;3.83;;;3.65;;
42668;SDS011;29384;42.028;21.388;2022-08-21T02:47:10;8.82;;;4.13;;
42668;SDS011;29384;42.028;21.388;2022-08-21T02:49:35;9.40;;;4.03;;
42668;SDS011;29384;42.028;21.388;2022-08-21T02:52:01;4.18;;;3.60;;
42668;SDS011;29384;42.028;21.388;2022-08-21T02:57:48;4.18;;;3.83;;
42668;SDS011;29384;42.028;21.388;2022-08-21T03:00:15;8.27;;;3.72;;
42668;SDS011;29384;42.028;21.388;2022-08-21T03:02:41;8.98;;;3.13;;
42668;SDS011;29384;42.028;21.388;2022-08-21T03:05:07;10.10;;;4.40;;
42668;SDS011;29384;42.028;21.388;2022-08-21T03:07:35;4.00;;;3.28;;
42668;SDS011;29384;42.028;21.388;2022-08-21T03:10:03;8.75;;;3.97;;
42668;SDS011;29384;42.028;21.388;2022-08-21T03:12:29;11.43;;;4.03;;
42668;SDS011;29384;42.028;21.388;2022-08-21T03:14:54;22.65;;;3.97;;
42668;SDS011;29384;42.028;21.388;2022-08-21T03:17:20;7.40;;;4.47;;
42668;SDS011;29384;42.028;21.388;2022-08-21T03:19:47;9.95;;;4.97;;
42668;SDS011;29384;42.028;21.388;2022-08-21T03:22:12;15.65;;;5.57;;
42668;SDS011;29384;42.028;21.388;2022-08-21T03:28:00;12.48;;;6.22;;
42668;SDS011;29384;42.028;21.388;2022-08-21T03:30:27;9.57;;;6.95;;
42668;SDS011;29384;42.028;21.388;2022-08-21T03:32:53;4.75;;;4.45;;
42668;SDS011;29384;42.028;21.388;2022-08-21T03:35:19;10.95;;;3.90;;
42668;SDS011;29384;42.028;21.388;2022-08-21T03:37:46;11.20;;;4.95;;
42668;SDS011;29384;42.028;21.388;2022-08-21T03:40:13;11.10;;;5.63;;
42668;SDS011;29384;42.028;21.388;2022-08-21T03:42:40;5.82;;;4.90;;
42668;SDS011;29384;42.028;21.388;2022-08-21T03:45:06;6.63;;;4.97;;
42668;SDS011;29384;42.028;21.388;2022-08-21T03:47:32;11.88;;;6.03;;
42668;SDS011;29384;42.028;21.388;2022-08-21T03:49:58;7.70;;;4.88;;
42668;SDS011;29384;42.028;21.388;2022-08-21T03:52:24;14.77;;;6.63;;
42668;SDS011;29384;42.028;21.388;2022-08-21T03:58:11;10.07;;;4.85;;
42668;SDS011;29384;42.028;21.388;2022-08-21T04:00:37;5.65;;;4.75;;
42668;SDS011;29384;42.028;21.388;2022-08-21T04:03:03;4.65;;;4.38;;
42668;SDS011;29384;42.028;21.388;2022-08-21T04:05:29;12.95;;;5.97;;
42668;SDS011;29384;42.028;21.388;2022-08-21T04:07:58;9.30;;;5.38;;
42668;SDS011;29384;42.028;21.388;2022-08-21T04:10:27;10.20;;;5.68;;
42668;SDS011;29384;42.028;21.388;2022-08-21T04:12:54;10.30;;;4.57;;
42668;SDS011;29384;42.028;21.388;2022-08-21T04:15:20;12.15;;;5.38;;
42668;SDS011;29384;42.028;21.388;2022-08-21T04:17:47;10.02;;;5.60;;
42668;SDS011;29384;42.028;21.388;2022-08-21T04:20:13;5.20;;;4.85;;
42668;SDS011;29384;42.028;21.388;2022-08-21T04:22:39;6.72;;;4.65;;
42668;SDS011;29384;42.028;21.388;2022-08-21T04:28:26;8.05;;;5.45;;
42668;SDS011;29384;42.028;21.388;2022-08-21T04:30:53;8.65;;;4.53;;
42668;SDS011;29384;42.028;21.388;2022-08-21T04:33:19;5.82;;;4.75;;
42668;SDS011;29384;42.028;21.388;2022-08-21T04:35:45;6.50;;;4.85;;
42668;SDS011;29384;42.028;21.388;2022-08-21T04:38:12;10.27;;;4.63;;
42668;SDS011;29384;42.028;21.388;2022-08-21T04:40:37;3.70;;;3.40;;
42668;SDS011;29384;42.028;21.388;2022-08-21T04:43:04;7.10;;;4.35;;
42668;SDS011;29384;42.028;21.388;2022-08-21T04:45:36;7.05;;;4.20;;
42668;SDS011;29384;42.028;21.388;2022-08-21T04:48:04;4.60;;;4.05;;
42668;SDS011;29384;42.028;21.388;2022-08-21T04:53:17;8.52;;;5.78;;
42668;SDS011;29384;42.028;21.388;2022-08-21T04:55:50;4.88;;;3.80;;
42668;SDS011;29384;42.028;21.388;2022-08-21T04:58:21;10.88;;;5.68;;
42668;SDS011;29384;42.028;21.388;2022-08-21T05:00:52;8.35;;;3.65;;
42668;SDS011;29384;42.028;21.388;2022-08-21T05:03:20;6.50;;;4.60;;
42668;SDS011;29384;42.028;21.388;2022-08-21T05:05:47;15.85;;;5.32;;
42668;SDS011;29384;42.028;21.388;2022-08-21T05:08:14;4.38;;;4.03;;
42668;SDS011;29384;42.028;21.388;2022-08-21T05:14:40;9.50;;;5.00;;
42668;SDS011;29384;42.028;21.388;2022-08-21T05:17:07;10.77;;;5.60;;
42668;SDS011;29384;42.028;21.388;2022-08-21T05:19:33;18.83;;;6.93;;
42668;SDS011;29384;42.028;21.388;2022-08-21T05:21:59;10.40;;;7.00;;
42668;SDS011;29384;42.028;21.388;2022-08-21T05:24:26;13.73;;;7.07;;
42668;SDS011;29384;42.028;21.388;2022-08-21T05:26:52;9.45;;;6.22;;
42668;SDS011;29384;42.028;21.388;2022-08-21T05:29:17;7.72;;;5.63;;
42668;SDS011;29384;42.028;21.388;2022-08-21T05:31:44;6.40;;;5.80;;
42668;SDS011;29384;42.028;21.388;2022-08-21T05:34:11;14.07;;;7.80;;
42668;SDS011;29384;42.028;21.388;2022-08-21T05:36:37;11.43;;;7.22;;
42668;SDS011;29384;42.028;21.388;2022-08-21T05:39:03;18.35;;;9.20;;
42668;SDS011;29384;42.028;21.388;2022-08-21T05:41:28;17.05;;;11.30;;
42668;SDS011;29384;42.028;21.388;2022-08-21T05:43:54;21.45;;;10.80;;
42668;SDS011;29384;42.028;21.388;2022-08-21T05:46:19;31.33;;;10.27;;
42668;SDS011;29384;42.028;21.388;2022-08-21T05:48:45;22.70;;;11.55;;
42668;SDS011;29384;42.028;21.388;2022-08-21T05:51:13;15.88;;;9.02;;
42668;SDS011;29384;42.028;21.388;2022-08-21T05:53:40;17.30;;;8.65;;
42668;SDS011;29384;42.028;21.388;2022-08-21T05:56:07;12.18;;;8.98;;
42668;SDS011;29384;42.028;21.388;2022-08-21T05:58:33;20.10;;;9.82;;
42668;SDS011;29384;42.028;21.388;2022-08-21T06:01:00;11.52;;;8.27;;
42668;SDS011;29384;42.028;21.388;2022-08-21T06:03:28;18.30;;;9.82;;
42668;SDS011;29384;42.028;21.388;2022-08-21T06:05:56;16.83;;;9.55;;
42668;SDS011;29384;42.028;21.388;2022-08-21T06:08:22;22.88;;;10.35;;
42668;SDS011;29384;42.028;21.388;2022-08-21T06:14:13;14.02;;;7.57;;
42668;SDS011;29384;42.028;21.388;2022-08-21T06:16:40;17.23;;;7.85;;
42668;SDS011;29384;42.028;21.388;2022-08-21T06:19:05;18.92;;;9.52;;
42668;SDS011;29384;42.028;21.388;2022-08-21T06:21:31;21.27;;;9.00;;
42668;SDS011;29384;42.028;21.388;2022-08-21T06:23:56;13.02;;;8.77;;
42668;SDS011;29384;42.028;21.388;2022-08-21T06:26:22;11.88;;;7.85;;
42668;SDS011;29384;42.028;21.388;2022-08-21T06:28:48;12.57;;;7.05;;
42668;SDS011;29384;42.028;21.388;2022-08-21T06:31:16;15.73;;;8.00;;
42668;SDS011;29384;42.028;21.388;2022-08-21T06:33:44;8.85;;;6.55;;
42668;SDS011;29384;42.028;21.388;2022-08-21T06:36:09;12.15;;;7.25;;
42668;SDS011;29384;42.028;21.388;2022-08-21T06:38:35;17.85;;;6.57;;
42668;SDS011;29384;42.028;21.388;2022-08-21T06:44:23;8.85;;;6.28;;
42668;SDS011;29384;42.028;21.388;2022-08-21T06:46:49;8.05;;;6.30;;
42668;SDS011;29384;42.028;21.388;2022-08-21T06:49:14;7.82;;;6.07;;
42668;SDS011;29384;42.028;21.388;2022-08-21T06:51:40;18.10;;;6.80;;
42668;SDS011;29384;42.028;21.388;2022-08-21T06:54:06;11.15;;;5.78;;
42668;SDS011;29384;42.028;21.388;2022-08-21T06:56:31;11.40;;;5.85;;
42668;SDS011;29384;42.028;21.388;2022-08-21T06:58:58;22.92;;;6.90;;
42668;SDS011;29384;42.028;21.388;2022-08-21T07:01:25;8.82;;;6.03;;
42668;SDS011;29384;42.028;21.388;2022-08-21T07:03:51;6.72;;;5.38;;
42668;SDS011;29384;42.028;21.388;2022-08-21T07:06:17;7.07;;;5.00;;
42668;SDS011;29384;42.028;21.388;2022-08-21T07:08:42;14.77;;;5.25;;
42668;SDS011;29384;42.028;21.388;2022-08-21T07:14:30;5.78;;;4.63;;
42668;SDS011;29384;42.028;21.388;2022-08-21T07:16:55;8.25;;;5.05;;
42668;SDS011;29384;42.028;21.388;2022-08-21T07:19:21;10.93;;;3.97;;
42668;SDS011;29384;42.028;21.388;2022-08-21T07:21:46;5.88;;;4.72;;
42668;SDS011;29384;42.028;21.388;2022-08-21T07:24:12;7.95;;;3.33;;
42668;SDS011;29384;42.028;21.388;2022-08-21T07:29:59;10.38;;;4.85;;
42668;SDS011;29384;42.028;21.388;2022-08-21T07:32:25;15.48;;;5.72;;
42668;SDS011;29384;42.028;21.388;2022-08-21T07:34:51;5.35;;;4.30;;
42668;SDS011;29384;42.028;21.388;2022-08-21T07:37:17;10.63;;;3.88;;
42668;SDS011;29384;42.028;21.388;2022-08-21T07:39:42;8.40;;;4.50;;
42668;SDS011;29384;42.028;21.388;2022-08-21T07:42:09;9.18;;;5.18;;
42668;SDS011;29384;42.028;21.388;2022-08-21T07:44:35;5.18;;;4.00;;
42668;SDS011;29384;42.028;21.388;2022-08-21T07:47:01;12.63;;;5.03;;
42668;SDS011;29384;42.028;21.388;2022-08-21T07:49:27;7.05;;;4.32;;
42668;SDS011;29384;42.028;21.388;2022-08-21T07:51:53;11.45;;;4.55;;
42668;SDS011;29384;42.028;21.388;2022-08-21T07:54:20;8.05;;;3.65;;
42668;SDS011;29384;42.028;21.388;2022-08-21T08:00:09;7.28;;;4.10;;
42668;SDS011;29384;42.028;21.388;2022-08-21T08:02:37;9.65;;;2.55;;
42668;SDS011;29384;42.028;21.388;2022-08-21T08:05:04;7.40;;;3.67;;
42668;SDS011;29384;42.028;21.388;2022-08-21T08:07:31;3.55;;;3.35;;
42668;SDS011;29384;42.028;21.388;2022-08-21T08:09:57;11.88;;;3.83;;
42668;SDS011;29384;42.028;21.388;2022-08-21T08:12:23;7.18;;;3.80;;
42668;SDS011;29384;42.028;21.388;2022-08-21T08:14:57;7.78;;;3.28;;
42668;SDS011;29384;42.028;21.388;2022-08-21T08:17:24;9.10;;;4.75;;
42668;SDS011;29384;42.028;21.388;2022-08-21T08:19:51;11.38;;;4.72;;
42668;SDS011;29384;42.028;21.388;2022-08-21T08:22:18;8.93;;;3.90;;
42668;SDS011;29384;42.028;21.388;2022-08-21T08:24:47;7.07;;;2.95;;
42668;SDS011;29384;42.028;21.388;2022-08-21T08:27:13;5.55;;;4.28;;
42668;SDS011;29384;42.028;21.388;2022-08-21T08:29:40;6.15;;;4.10;;
42668;SDS011;29384;42.028;21.388;2022-08-21T08:32:05;9.75;;;4.45;;
42668;SDS011;29384;42.028;21.388;2022-08-21T08:34:35;6.20;;;4.22;;
42668;SDS011;29384;42.028;21.388;2022-08-21T08:37:01;11.38;;;4.20;;
42668;SDS011;29384;42.028;21.388;2022-08-21T08:39:28;7.40;;;4.38;;
42668;SDS011;29384;42.028;21.388;2022-08-21T08:45:17;13.32;;;5.47;;
42668;SDS011;29384;42.028;21.388;2022-08-21T08:47:57;7.95;;;4.60;;
42668;SDS011;29384;42.028;21.388;2022-08-21T08:50:29;6.45;;;5.53;;
42668;SDS011;29384;42.028;21.388;2022-08-21T08:53:06;20.02;;;6.03;;
42668;SDS011;29384;42.028;21.388;2022-08-21T08:55:46;16.02;;;6.50;;
42668;SDS011;29384;42.028;21.388;2022-08-21T08:58:17;12.23;;;5.93;;
42668;SDS011;29384;42.028;21.388;2022-08-21T09:00:47;7.70;;;6.80;;
42668;SDS011;29384;42.028;21.388;2022-08-21T09:03:16;12.80;;;7.00;;
42668;SDS011;29384;42.028;21.388;2022-08-21T09:08:35;7.68;;;6.15;;
42668;SDS011;29384;42.028;21.388;2022-08-21T09:19:19;7.70;;;6.50;;
42668;SDS011;29384;42.028;21.388;2022-08-21T09:22:08;6.13;;;5.22;;
42668;SDS011;29384;42.028;21.388;2022-08-21T09:27:14;7.65;;;5.13;;
42668;SDS011;29384;42.028;21.388;2022-08-21T09:29:46;12.02;;;5.75;;
42668;SDS011;29384;42.028;21.388;2022-08-21T09:32:18;16.23;;;5.53;;
42668;SDS011;29384;42.028;21.388;2022-08-21T09:34:58;10.05;;;5.13;;
42668;SDS011;29384;42.028;21.388;2022-08-21T09:37:31;7.88;;;5.80;;
42668;SDS011;29384;42.028;21.388;2022-08-21T09:39:59;9.18;;;4.53;;
42668;SDS011;29384;42.028;21.388;2022-08-21T09:42:30;13.07;;;4.95;;
42668;SDS011;29384;42.028;21.388;2022-08-21T09:47:41;7.28;;;4.80;;
42668;SDS011;29384;42.028;21.388;2022-08-21T09:50:13;10.77;;;4.13;;
42668;SDS011;29384;42.028;21.388;2022-08-21T09:52:55;5.47;;;3.30;;
42668;SDS011;29384;42.028;21.388;2022-08-21T09:58:47;9.27;;;3.60;;
42668;SDS011;29384;42.028;21.388;2022-08-21T10:01:18;6.15;;;3.90;;
42668;SDS011;29384;42.028;21.388;2022-08-21T10:03:49;4.38;;;2.78;;
42668;SDS011;29384;42.028;21.388;2022-08-21T10:06:27;4.53;;;3.08;;
42668;SDS011;29384;42.028;21.388;2022-08-21T10:09:13;11.40;;;3.95;;
42668;SDS011;29384;42.028;21.388;2022-08-21T10:20:35;9.85;;;2.92;;
42668;SDS011;29384;42.028;21.388;2022-08-21T10:25:58;4.63;;;3.60;;
42668;SDS011;29384;42.028;21.388;2022-08-21T10:29:37;2.58;;;2.38;;
42668;SDS011;29384;42.028;21.388;2022-08-21T10:47:59;4.72;;;3.30;;
42668;SDS011;29384;42.028;21.388;2022-08-21T10:50:31;12.88;;;3.53;;
42668;SDS011;29384;42.028;21.388;2022-08-21T10:53:09;4.82;;;3.05;;
42668;SDS011;29384;42.028;21.388;2022-08-21T11:02:13;3.60;;;2.78;;
42668;SDS011;29384;42.028;21.388;2022-08-21T11:04:54;7.68;;;3.58;;
42668;SDS011;29384;42.028;21.388;2022-08-21T11:07:37;3.08;;;2.70;;
42668;SDS011;29384;42.028;21.388;2022-08-21T11:10:27;5.05;;;3.70;;
42668;SDS011;29384;42.028;21.388;2022-08-21T11:16:09;4.40;;;2.80;;
42668;SDS011;29384;42.028;21.388;2022-08-21T11:18:53;5.60;;;3.67;;
42668;SDS011;29384;42.028;21.388;2022-08-21T11:29:28;9.18;;;4.05;;
42668;SDS011;29384;42.028;21.388;2022-08-21T11:32:02;11.32;;;3.42;;
42668;SDS011;29384;42.028;21.388;2022-08-21T11:34:57;8.80;;;4.00;;
42668;SDS011;29384;42.028;21.388;2022-08-21T11:42:38;8.32;;;3.55;;
42668;SDS011;29384;42.028;21.388;2022-08-21T11:48:16;24.00;;;9.32;;
42668;SDS011;29384;42.028;21.388;2022-08-21T11:51:22;9.25;;;3.75;;
42668;SDS011;29384;42.028;21.388;2022-08-21T11:53:59;5.13;;;4.73;;
42668;SDS011;29384;42.028;21.388;2022-08-21T11:59:53;7.47;;;5.15;;
42668;SDS011;29384;42.028;21.388;2022-08-21T12:02:34;4.47;;;3.65;;
42668;SDS011;29384;42.028;21.388;2022-08-21T12:05:07;4.20;;;3.83;;
42668;SDS011;29384;42.028;21.388;2022-08-21T12:07:40;5.03;;;4.13;;
42668;SDS011;29384;42.028;21.388;2022-08-21T12:10:10;11.32;;;4.35;;
42668;SDS011;29384;42.028;21.388;2022-08-21T12:18:33;4.63;;;4.18;;
42668;SDS011;29384;42.028;21.388;2022-08-21T12:23:43;5.28;;;3.08;;
42668;SDS011;29384;42.028;21.388;2022-08-21T12:26:33;3.67;;;3.35;;
42668;SDS011;29384;42.028;21.388;2022-08-21T12:29:11;6.10;;;3.35;;
42668;SDS011;29384;42.028;21.388;2022-08-21T12:34:16;10.07;;;3.13;;
42668;SDS011;29384;42.028;21.388;2022-08-21T12:36:59;5.55;;;3.17;;
42668;SDS011;29384;42.028;21.388;2022-08-21T12:39:29;5.97;;;3.90;;
42668;SDS011;29384;42.028;21.388;2022-08-21T12:41:59;16.30;;;3.05;;
42668;SDS011;29384;42.028;21.388;2022-08-21T12:44:51;5.63;;;3.10;;
42668;SDS011;29384;42.028;21.388;2022-08-21T12:47:33;4.88;;;3.60;;
42668;SDS011;29384;42.028;21.388;2022-08-21T12:50:11;5.53;;;2.97;;
42668;SDS011;29384;42.028;21.388;2022-08-21T12:55:45;3.15;;;2.78;;
42668;SDS011;29384;42.028;21.388;2022-08-21T12:58:21;7.25;;;2.53;;
42668;SDS011;29384;42.028;21.388;2022-08-21T13:00:50;5.47;;;2.72;;
42668;SDS011;29384;42.028;21.388;2022-08-21T13:03:19;3.17;;;2.78;;
42668;SDS011;29384;42.028;21.388;2022-08-21T13:05:47;5.07;;;3.25;;
42668;SDS011;29384;42.028;21.388;2022-08-21T13:08:16;14.45;;;3.60;;
42668;SDS011;29384;42.028;21.388;2022-08-21T13:10:44;2.17;;;1.98;;
42668;SDS011;29384;42.028;21.388;2022-08-21T13:13:22;3.60;;;2.78;;
42668;SDS011;29384;42.028;21.388;2022-08-21T13:15:56;2.38;;;2.17;;
42668;SDS011;29384;42.028;21.388;2022-08-21T13:18:24;6.40;;;2.73;;
42668;SDS011;29384;42.028;21.388;2022-08-21T13:21:01;3.60;;;2.58;;
42668;SDS011;29384;42.028;21.388;2022-08-21T13:23:30;10.02;;;3.13;;
42668;SDS011;29384;42.028;21.388;2022-08-21T13:25:55;2.55;;;2.35;;
42668;SDS011;29384;42.028;21.388;2022-08-21T13:28:21;5.18;;;3.03;;
42668;SDS011;29384;42.028;21.388;2022-08-21T13:30:48;3.88;;;3.67;;
42668;SDS011;29384;42.028;21.388;2022-08-21T13:33:17;2.40;;;2.35;;
42668;SDS011;29384;42.028;21.388;2022-08-21T13:35:50;2.80;;;2.45;;
42668;SDS011;29384;42.028;21.388;2022-08-21T13:38:23;4.85;;;3.00;;
42668;SDS011;29384;42.028;21.388;2022-08-21T13:41:01;10.13;;;3.80;;
42668;SDS011;29384;42.028;21.388;2022-08-21T13:43:36;6.85;;;2.88;;
42668;SDS011;29384;42.028;21.388;2022-08-21T13:46:06;3.75;;;2.50;;
42668;SDS011;29384;42.028;21.388;2022-08-21T13:48:35;3.78;;;2.83;;
42668;SDS011;29384;42.028;21.388;2022-08-21T13:51:02;7.30;;;2.53;;
42668;SDS011;29384;42.028;21.388;2022-08-21T13:55:59;2.92;;;2.72;;
42668;SDS011;29384;42.028;21.388;2022-08-21T13:58:28;2.85;;;2.63;;
42668;SDS011;29384;42.028;21.388;2022-08-21T14:00:55;9.43;;;2.70;;
42668;SDS011;29384;42.028;21.388;2022-08-21T14:03:31;3.83;;;3.30;;
42668;SDS011;29384;42.028;21.388;2022-08-21T14:05:58;4.90;;;2.90;;
42668;SDS011;29384;42.028;21.388;2022-08-21T14:08:29;4.72;;;3.25;;
42668;SDS011;29384;42.028;21.388;2022-08-21T14:10:58;14.57;;;3.50;;
42668;SDS011;29384;42.028;21.388;2022-08-21T14:13:36;4.72;;;3.13;;
42668;SDS011;29384;42.028;21.388;2022-08-21T14:16:11;3.25;;;2.92;;
42668;SDS011;29384;42.028;21.388;2022-08-21T14:18:46;5.82;;;2.80;;
42668;SDS011;29384;42.028;21.388;2022-08-21T14:21:22;6.38;;;3.45;;
42668;SDS011;29384;42.028;21.388;2022-08-21T14:24:02;20.40;;;4.05;;
42668;SDS011;29384;42.028;21.388;2022-08-21T14:26:28;13.93;;;4.30;;
42668;SDS011;29384;42.028;21.388;2022-08-21T14:28:57;2.58;;;2.33;;
42668;SDS011;29384;42.028;21.388;2022-08-21T14:31:27;4.63;;;2.95;;
42668;SDS011;29384;42.028;21.388;2022-08-21T14:33:55;4.22;;;3.50;;
42668;SDS011;29384;42.028;21.388;2022-08-21T14:36:21;5.55;;;3.70;;
42668;SDS011;29384;42.028;21.388;2022-08-21T14:38:46;4.55;;;3.60;;
42668;SDS011;29384;42.028;21.388;2022-08-21T14:41:16;3.85;;;3.55;;
42668;SDS011;29384;42.028;21.388;2022-08-21T14:43:44;3.95;;;3.58;;
42668;SDS011;29384;42.028;21.388;2022-08-21T14:46:17;4.88;;;3.00;;
42668;SDS011;29384;42.028;21.388;2022-08-21T14:48:46;4.03;;;2.42;;
42668;SDS011;29384;42.028;21.388;2022-08-21T14:51:12;6.70;;;3.28;;
42668;SDS011;29384;42.028;21.388;2022-08-21T14:53:39;7.78;;;3.63;;
42668;SDS011;29384;42.028;21.388;2022-08-21T14:56:04;5.28;;;3.17;;
42668;SDS011;29384;42.028;21.388;2022-08-21T14:58:32;3.25;;;3.05;;
42668;SDS011;29384;42.028;21.388;2022-08-21T15:01:06;3.65;;;2.78;;
42668;SDS011;29384;42.028;21.388;2022-08-21T15:03:34;5.35;;;2.92;;
42668;SDS011;29384;42.028;21.388;2022-08-21T15:06:02;4.60;;;3.17;;
42668;SDS011;29384;42.028;21.388;2022-08-21T15:08:29;3.92;;;2.65;;
42668;SDS011;29384;42.028;21.388;2022-08-21T15:10:54;4.20;;;2.65;;
42668;SDS011;29384;42.028;21.388;2022-08-21T15:13:21;5.35;;;3.00;;
42668;SDS011;29384;42.028;21.388;2022-08-21T15:15:47;4.30;;;2.95;;
42668;SDS011;29384;42.028;21.388;2022-08-21T15:18:15;7.03;;;3.75;;
42668;SDS011;29384;42.028;21.388;2022-08-21T15:20:41;5.10;;;3.25;;
42668;SDS011;29384;42.028;21.388;2022-08-21T15:23:07;5.80;;;3.97;;
42668;SDS011;29384;42.028;21.388;2022-08-21T15:25:34;4.53;;;3.13;;
42668;SDS011;29384;42.028;21.388;2022-08-21T15:28:00;5.68;;;4.07;;
42668;SDS011;29384;42.028;21.388;2022-08-21T15:30:27;5.50;;;4.03;;
42668;SDS011;29384;42.028;21.388;2022-08-21T15:32:55;6.05;;;3.67;;
42668;SDS011;29384;42.028;21.388;2022-08-21T15:35:20;6.05;;;3.08;;
42668;SDS011;29384;42.028;21.388;2022-08-21T15:37:46;3.53;;;3.20;;
42668;SDS011;29384;42.028;21.388;2022-08-21T15:40:12;4.05;;;3.35;;
42668;SDS011;29384;42.028;21.388;2022-08-21T15:42:39;4.95;;;3.40;;
42668;SDS011;29384;42.028;21.388;2022-08-21T15:45:05;4.53;;;3.95;;
42668;SDS011;29384;42.028;21.388;2022-08-21T15:47:35;6.60;;;3.88;;
42668;SDS011;29384;42.028;21.388;2022-08-21T15:50:03;3.92;;;3.55;;
42668;SDS011;29384;42.028;21.388;2022-08-21T15:52:32;4.28;;;3.50;;
42668;SDS011;29384;42.028;21.388;2022-08-21T15:54:58;4.38;;;3.97;;
42668;SDS011;29384;42.028;21.388;2022-08-21T15:57:24;7.07;;;3.80;;
42668;SDS011;29384;42.028;21.388;2022-08-21T15:59:51;4.80;;;3.42;;
42668;SDS011;29384;42.028;21.388;2022-08-21T16:02:34;13.65;;;4.22;;
42668;SDS011;29384;42.028;21.388;2022-08-21T16:05:01;3.33;;;3.03;;
42668;SDS011;29384;42.028;21.388;2022-08-21T16:07:26;5.35;;;3.40;;
42668;SDS011;29384;42.028;21.388;2022-08-21T16:09:52;4.70;;;2.45;;
42668;SDS011;29384;42.028;21.388;2022-08-21T16:12:21;3.75;;;3.22;;
42668;SDS011;29384;42.028;21.388;2022-08-21T16:18:38;3.80;;;3.50;;
42668;SDS011;29384;42.028;21.388;2022-08-21T16:21:05;3.30;;;3.00;;
42668;SDS011;29384;42.028;21.388;2022-08-21T16:23:32;10.80;;;4.65;;
42668;SDS011;29384;42.028;21.388;2022-08-21T16:25:59;4.00;;;3.60;;
42668;SDS011;29384;42.028;21.388;2022-08-21T16:28:27;7.80;;;4.13;;
42668;SDS011;29384;42.028;21.388;2022-08-21T16:30:52;8.02;;;3.92;;
42668;SDS011;29384;42.028;21.388;2022-08-21T16:33:20;4.65;;;3.08;;
42668;SDS011;29384;42.028;21.388;2022-08-21T16:35:53;9.10;;;2.60;;
42668;SDS011;29384;42.028;21.388;2022-08-21T16:38:18;6.25;;;2.95;;
42668;SDS011;29384;42.028;21.388;2022-08-21T16:40:44;6.07;;;2.90;;
42668;SDS011;29384;42.028;21.388;2022-08-21T16:43:10;5.85;;;2.72;;
42668;SDS011;29384;42.028;21.388;2022-08-21T16:45:35;2.67;;;1.73;;
42668;SDS011;29384;42.028;21.388;2022-08-21T16:48:02;4.63;;;2.85;;
42668;SDS011;29384;42.028;21.388;2022-08-21T16:50:30;6.15;;;2.17;;
42668;SDS011;29384;42.028;21.388;2022-08-21T16:52:56;3.60;;;3.30;;
42668;SDS011;29384;42.028;21.388;2022-08-21T16:55:21;3.80;;;2.28;;
42668;SDS011;29384;42.028;21.388;2022-08-21T16:57:47;2.78;;;2.38;;
42668;SDS011;29384;42.028;21.388;2022-08-21T17:00:12;3.53;;;1.50;;
42668;SDS011;29384;42.028;21.388;2022-08-21T17:02:42;3.08;;;2.88;;
42668;SDS011;29384;42.028;21.388;2022-08-21T17:05:11;6.95;;;1.98;;
42668;SDS011;29384;42.028;21.388;2022-08-21T17:07:37;3.53;;;1.40;;
42668;SDS011;29384;42.028;21.388;2022-08-21T17:10:04;4.82;;;2.47;;
42668;SDS011;29384;42.028;21.388;2022-08-21T17:12:32;2.65;;;1.95;;
42668;SDS011;29384;42.028;21.388;2022-08-21T17:18:21;2.25;;;2.10;;
42668;SDS011;29384;42.028;21.388;2022-08-21T17:20:47;1.55;;;1.48;;